sensor_id;sensor_type;location;lat;lon;timestamp;P1;durP1;ratioP1;P2;durP2;ratioP2
77304;SDS011;66364;52.622;7.746;2023-03-03T00:00:24;33.77;;;21.90;;
77304;SDS011;66364;52.622;7.746;2023-03-03T00:02:25;36.77;;;22.00;;
77304;SDS011;66364;52.622;7.746;2023-03-03T00:04:25;32.83;;;21.10;;
77304;SDS011;66364;52.622;7.746;2023-03-03T00:06:26;32.10;;;20.37;;
77304;SDS011;66364;52.622;7.746;2023-03-03T00:08:27;33.80;;;21.40;;
77304;SDS011;66364;52.622;7.746;2023-03-03T00:10:28;33.40;;;22.25;;
77304;SDS011;66364;52.622;7.746;2023-03-03T00:12:29;34.37;;;22.30;;
77304;SDS011;66364;52.622;7.746;2023-03-03T00:14:31;36.95;;;22.00;;
77304;SDS011;66364;52.622;7.746;2023-03-03T00:16:38;37.90;;;22.62;;
77304;SDS011;66364;52.622;7.746;2023-03-03T00:18:44;38.30;;;23.52;;
77304;SDS011;66364;52.622;7.746;2023-03-03T00:20:53;42.15;;;23.02;;
77304;SDS011;66364;52.622;7.746;2023-03-03T00:25:27;45.12;;;24.15;;
77304;SDS011;66364;52.622;7.746;2023-03-03T00:27:36;38.10;;;23.22;;
77304;SDS011;66364;52.622;7.746;2023-03-03T00:29:40;37.85;;;23.15;;
77304;SDS011;66364;52.622;7.746;2023-03-03T00:31:47;43.28;;;23.07;;
77304;SDS011;66364;52.622;7.746;2023-03-03T00:33:49;36.57;;;22.13;;
77304;SDS011;66364;52.622;7.746;2023-03-03T00:35:51;38.60;;;21.87;;
77304;SDS011;66364;52.622;7.746;2023-03-03T00:42:37;38.50;;;23.62;;
77304;SDS011;66364;52.622;7.746;2023-03-03T00:46:55;44.85;;;23.18;;
77304;SDS011;66364;52.622;7.746;2023-03-03T00:48:56;41.80;;;24.20;;
77304;SDS011;66364;52.622;7.746;2023-03-03T00:51:00;49.50;;;25.90;;
77304;SDS011;66364;52.622;7.746;2023-03-03T00:53:04;37.90;;;24.20;;
77304;SDS011;66364;52.622;7.746;2023-03-03T00:55:07;40.95;;;22.67;;
77304;SDS011;66364;52.622;7.746;2023-03-03T00:57:08;41.18;;;23.15;;
77304;SDS011;66364;52.622;7.746;2023-03-03T00:59:09;51.90;;;26.97;;
77304;SDS011;66364;52.622;7.746;2023-03-03T01:01:11;41.35;;;24.27;;
77304;SDS011;66364;52.622;7.746;2023-03-03T01:03:12;43.40;;;22.67;;
77304;SDS011;66364;52.622;7.746;2023-03-03T01:05:15;42.70;;;25.43;;
77304;SDS011;66364;52.622;7.746;2023-03-03T01:07:17;40.17;;;22.67;;
77304;SDS011;66364;52.622;7.746;2023-03-03T01:09:18;45.12;;;24.57;;
77304;SDS011;66364;52.622;7.746;2023-03-03T01:11:21;37.10;;;20.60;;
77304;SDS011;66364;52.622;7.746;2023-03-03T01:13:26;46.37;;;21.90;;
77304;SDS011;66364;52.622;7.746;2023-03-03T01:15:29;42.00;;;22.60;;
77304;SDS011;66364;52.622;7.746;2023-03-03T01:17:31;39.60;;;22.27;;
77304;SDS011;66364;52.622;7.746;2023-03-03T01:21:35;38.00;;;21.82;;
77304;SDS011;66364;52.622;7.746;2023-03-03T01:23:36;38.63;;;23.13;;
77304;SDS011;66364;52.622;7.746;2023-03-03T01:25:37;41.25;;;21.55;;
77304;SDS011;66364;52.622;7.746;2023-03-03T01:27:38;43.87;;;23.42;;
77304;SDS011;66364;52.622;7.746;2023-03-03T01:29:39;39.60;;;22.40;;
77304;SDS011;66364;52.622;7.746;2023-03-03T01:31:40;42.33;;;23.67;;
77304;SDS011;66364;52.622;7.746;2023-03-03T01:33:40;41.90;;;22.40;;
77304;SDS011;66364;52.622;7.746;2023-03-03T01:35:45;36.87;;;22.23;;
77304;SDS011;66364;52.622;7.746;2023-03-03T01:37:46;44.67;;;22.65;;
77304;SDS011;66364;52.622;7.746;2023-03-03T01:39:51;40.47;;;23.00;;
77304;SDS011;66364;52.622;7.746;2023-03-03T01:41:52;37.85;;;23.05;;
77304;SDS011;66364;52.622;7.746;2023-03-03T01:43:53;39.50;;;23.33;;
77304;SDS011;66364;52.622;7.746;2023-03-03T01:48:03;33.83;;;21.33;;
77304;SDS011;66364;52.622;7.746;2023-03-03T01:50:11;39.55;;;23.00;;
77304;SDS011;66364;52.622;7.746;2023-03-03T01:52:34;37.60;;;20.35;;
77304;SDS011;66364;52.622;7.746;2023-03-03T01:54:35;41.50;;;23.92;;
77304;SDS011;66364;52.622;7.746;2023-03-03T01:56:38;40.05;;;22.15;;
77304;SDS011;66364;52.622;7.746;2023-03-03T01:58:44;41.73;;;24.47;;
77304;SDS011;66364;52.622;7.746;2023-03-03T02:00:45;47.05;;;24.95;;
77304;SDS011;66364;52.622;7.746;2023-03-03T02:02:48;49.98;;;22.80;;
77304;SDS011;66364;52.622;7.746;2023-03-03T02:04:49;51.53;;;25.93;;
77304;SDS011;66364;52.622;7.746;2023-03-03T02:06:53;46.83;;;25.30;;
77304;SDS011;66364;52.622;7.746;2023-03-03T02:09:02;59.83;;;29.48;;
77304;SDS011;66364;52.622;7.746;2023-03-03T02:11:01;54.40;;;26.90;;
77304;SDS011;66364;52.622;7.746;2023-03-03T02:13:04;59.27;;;29.52;;
77304;SDS011;66364;52.622;7.746;2023-03-03T02:15:14;53.40;;;26.87;;
77304;SDS011;66364;52.622;7.746;2023-03-03T02:17:18;57.85;;;25.95;;
77304;SDS011;66364;52.622;7.746;2023-03-03T02:19:25;54.60;;;29.03;;
77304;SDS011;66364;52.622;7.746;2023-03-03T02:21:30;51.63;;;27.42;;
77304;SDS011;66364;52.622;7.746;2023-03-03T02:23:35;52.70;;;28.87;;
77304;SDS011;66364;52.622;7.746;2023-03-03T02:27:45;58.78;;;29.65;;
77304;SDS011;66364;52.622;7.746;2023-03-03T02:29:45;53.17;;;26.70;;
77304;SDS011;66364;52.622;7.746;2023-03-03T02:31:46;49.73;;;25.60;;
77304;SDS011;66364;52.622;7.746;2023-03-03T02:33:48;46.50;;;25.00;;
77304;SDS011;66364;52.622;7.746;2023-03-03T02:35:54;56.37;;;27.55;;
77304;SDS011;66364;52.622;7.746;2023-03-03T02:41:00;43.65;;;23.50;;
77304;SDS011;66364;52.622;7.746;2023-03-03T02:43:14;41.00;;;23.45;;
77304;SDS011;66364;52.622;7.746;2023-03-03T02:45:18;41.13;;;23.95;;
77304;SDS011;66364;52.622;7.746;2023-03-03T02:47:19;42.13;;;23.27;;
77304;SDS011;66364;52.622;7.746;2023-03-03T02:49:34;37.33;;;21.80;;
77304;SDS011;66364;52.622;7.746;2023-03-03T02:51:36;41.55;;;23.32;;
77304;SDS011;66364;52.622;7.746;2023-03-03T02:53:58;36.75;;;20.62;;
77304;SDS011;66364;52.622;7.746;2023-03-03T02:55:58;37.10;;;22.23;;
77304;SDS011;66364;52.622;7.746;2023-03-03T02:57:59;36.97;;;24.10;;
77304;SDS011;66364;52.622;7.746;2023-03-03T03:00:00;38.77;;;21.03;;
77304;SDS011;66364;52.622;7.746;2023-03-03T03:02:00;37.93;;;22.00;;
77304;SDS011;66364;52.622;7.746;2023-03-03T03:04:06;35.60;;;21.90;;
77304;SDS011;66364;52.622;7.746;2023-03-03T03:06:08;34.30;;;20.52;;
77304;SDS011;66364;52.622;7.746;2023-03-03T03:08:09;30.70;;;21.03;;
77304;SDS011;66364;52.622;7.746;2023-03-03T03:10:19;35.33;;;23.67;;
77304;SDS011;66364;52.622;7.746;2023-03-03T03:12:20;36.00;;;22.25;;
77304;SDS011;66364;52.622;7.746;2023-03-03T03:14:21;37.67;;;22.25;;
77304;SDS011;66364;52.622;7.746;2023-03-03T03:16:22;37.33;;;21.40;;
77304;SDS011;66364;52.622;7.746;2023-03-03T03:18:22;38.93;;;23.13;;
77304;SDS011;66364;52.622;7.746;2023-03-03T03:20:23;35.00;;;21.83;;
77304;SDS011;66364;52.622;7.746;2023-03-03T03:22:24;32.93;;;20.10;;
77304;SDS011;66364;52.622;7.746;2023-03-03T03:24:24;34.53;;;22.73;;
77304;SDS011;66364;52.622;7.746;2023-03-03T03:26:25;37.07;;;21.63;;
77304;SDS011;66364;52.622;7.746;2023-03-03T03:28:27;35.45;;;22.50;;
77304;SDS011;66364;52.622;7.746;2023-03-03T03:30:28;34.10;;;21.45;;
77304;SDS011;66364;52.622;7.746;2023-03-03T03:32:29;36.07;;;21.40;;
77304;SDS011;66364;52.622;7.746;2023-03-03T03:37:02;34.88;;;20.37;;
77304;SDS011;66364;52.622;7.746;2023-03-03T03:39:03;34.80;;;22.87;;
77304;SDS011;66364;52.622;7.746;2023-03-03T03:41:04;38.20;;;20.50;;
77304;SDS011;66364;52.622;7.746;2023-03-03T03:43:06;35.30;;;23.32;;
77304;SDS011;66364;52.622;7.746;2023-03-03T03:45:07;32.43;;;19.70;;
77304;SDS011;66364;52.622;7.746;2023-03-03T03:47:08;34.70;;;20.57;;
77304;SDS011;66364;52.622;7.746;2023-03-03T03:49:24;34.00;;;22.93;;
77304;SDS011;66364;52.622;7.746;2023-03-03T03:51:25;32.93;;;20.05;;
77304;SDS011;66364;52.622;7.746;2023-03-03T03:53:35;33.63;;;21.73;;
77304;SDS011;66364;52.622;7.746;2023-03-03T03:55:35;35.20;;;22.87;;
77304;SDS011;66364;52.622;7.746;2023-03-03T03:57:36;34.53;;;22.27;;
77304;SDS011;66364;52.622;7.746;2023-03-03T03:59:37;35.10;;;22.50;;
77304;SDS011;66364;52.622;7.746;2023-03-03T04:01:37;32.50;;;22.80;;
77304;SDS011;66364;52.622;7.746;2023-03-03T04:03:38;32.57;;;20.03;;
77304;SDS011;66364;52.622;7.746;2023-03-03T04:05:39;27.70;;;19.97;;
77304;SDS011;66364;52.622;7.746;2023-03-03T04:07:39;29.33;;;21.37;;
77304;SDS011;66364;52.622;7.746;2023-03-03T04:09:40;30.60;;;21.00;;
77304;SDS011;66364;52.622;7.746;2023-03-03T04:11:47;31.90;;;22.17;;
77304;SDS011;66364;52.622;7.746;2023-03-03T04:13:48;33.28;;;19.98;;
77304;SDS011;66364;52.622;7.746;2023-03-03T04:15:49;28.95;;;19.73;;
77304;SDS011;66364;52.622;7.746;2023-03-03T04:17:49;29.37;;;19.10;;
77304;SDS011;66364;52.622;7.746;2023-03-03T04:19:59;37.00;;;21.27;;
77304;SDS011;66364;52.622;7.746;2023-03-03T04:22:00;32.13;;;20.10;;
77304;SDS011;66364;52.622;7.746;2023-03-03T04:24:01;36.03;;;21.13;;
77304;SDS011;66364;52.622;7.746;2023-03-03T04:26:01;32.30;;;21.03;;
77304;SDS011;66364;52.622;7.746;2023-03-03T04:28:03;27.80;;;19.37;;
77304;SDS011;66364;52.622;7.746;2023-03-03T04:30:04;27.83;;;19.30;;
77304;SDS011;66364;52.622;7.746;2023-03-03T04:32:06;29.23;;;18.42;;
77304;SDS011;66364;52.622;7.746;2023-03-03T04:34:16;30.17;;;19.48;;
77304;SDS011;66364;52.622;7.746;2023-03-03T04:36:17;29.65;;;19.02;;
77304;SDS011;66364;52.622;7.746;2023-03-03T04:38:18;30.73;;;19.93;;
77304;SDS011;66364;52.622;7.746;2023-03-03T04:40:18;32.13;;;21.53;;
77304;SDS011;66364;52.622;7.746;2023-03-03T04:42:19;31.07;;;19.10;;
77304;SDS011;66364;52.622;7.746;2023-03-03T04:44:20;26.07;;;18.60;;
77304;SDS011;66364;52.622;7.746;2023-03-03T04:48:30;26.37;;;17.23;;
77304;SDS011;66364;52.622;7.746;2023-03-03T04:50:31;25.03;;;16.40;;
77304;SDS011;66364;52.622;7.746;2023-03-03T04:52:32;23.07;;;17.00;;
77304;SDS011;66364;52.622;7.746;2023-03-03T04:54:33;33.13;;;18.67;;
77304;SDS011;66364;52.622;7.746;2023-03-03T04:56:33;24.00;;;17.33;;
77304;SDS011;66364;52.622;7.746;2023-03-03T04:58:34;26.70;;;17.97;;
77304;SDS011;66364;52.622;7.746;2023-03-03T05:00:37;23.80;;;18.07;;
77304;SDS011;66364;52.622;7.746;2023-03-03T05:02:40;28.65;;;19.35;;
77304;SDS011;66364;52.622;7.746;2023-03-03T05:04:42;26.48;;;18.27;;
77304;SDS011;66364;52.622;7.746;2023-03-03T05:06:43;28.12;;;18.52;;
77304;SDS011;66364;52.622;7.746;2023-03-03T05:08:44;26.87;;;17.93;;
77304;SDS011;66364;52.622;7.746;2023-03-03T05:10:45;29.12;;;19.37;;
77304;SDS011;66364;52.622;7.746;2023-03-03T05:12:45;30.53;;;19.30;;
77304;SDS011;66364;52.622;7.746;2023-03-03T05:14:54;27.00;;;18.60;;
77304;SDS011;66364;52.622;7.746;2023-03-03T05:16:55;29.07;;;18.27;;
77304;SDS011;66364;52.622;7.746;2023-03-03T05:18:56;29.03;;;18.47;;
77304;SDS011;66364;52.622;7.746;2023-03-03T05:20:57;34.47;;;19.73;;
77304;SDS011;66364;52.622;7.746;2023-03-03T05:22:59;28.10;;;19.63;;
77304;SDS011;66364;52.622;7.746;2023-03-03T05:25:00;32.75;;;21.17;;
77304;SDS011;66364;52.622;7.746;2023-03-03T05:27:01;29.60;;;21.50;;
77304;SDS011;66364;52.622;7.746;2023-03-03T05:29:01;30.50;;;20.17;;
77304;SDS011;66364;52.622;7.746;2023-03-03T05:31:03;35.98;;;22.85;;
77304;SDS011;66364;52.622;7.746;2023-03-03T05:33:03;35.70;;;19.80;;
77304;SDS011;66364;52.622;7.746;2023-03-03T05:35:05;31.33;;;21.52;;
77304;SDS011;66364;52.622;7.746;2023-03-03T05:37:06;31.60;;;20.27;;
77304;SDS011;66364;52.622;7.746;2023-03-03T05:39:08;35.03;;;22.13;;
77304;SDS011;66364;52.622;7.746;2023-03-03T05:41:09;40.10;;;22.45;;
77304;SDS011;66364;52.622;7.746;2023-03-03T05:43:16;32.43;;;19.90;;
77304;SDS011;66364;52.622;7.746;2023-03-03T05:45:44;30.35;;;17.57;;
77304;SDS011;66364;52.622;7.746;2023-03-03T05:47:45;34.88;;;19.42;;
77304;SDS011;66364;52.622;7.746;2023-03-03T05:49:49;32.30;;;21.27;;
77304;SDS011;66364;52.622;7.746;2023-03-03T05:51:50;30.40;;;18.40;;
77304;SDS011;66364;52.622;7.746;2023-03-03T05:53:50;31.63;;;18.83;;
77304;SDS011;66364;52.622;7.746;2023-03-03T05:55:51;37.93;;;20.83;;
77304;SDS011;66364;52.622;7.746;2023-03-03T05:57:52;36.93;;;19.87;;
77304;SDS011;66364;52.622;7.746;2023-03-03T05:59:53;33.20;;;19.90;;
77304;SDS011;66364;52.622;7.746;2023-03-03T06:01:53;31.37;;;20.33;;
77304;SDS011;66364;52.622;7.746;2023-03-03T06:03:54;31.10;;;19.40;;
77304;SDS011;66364;52.622;7.746;2023-03-03T06:05:54;34.00;;;19.60;;
77304;SDS011;66364;52.622;7.746;2023-03-03T06:09:59;34.80;;;21.93;;
77304;SDS011;66364;52.622;7.746;2023-03-03T06:14:31;34.55;;;20.32;;
77304;SDS011;66364;52.622;7.746;2023-03-03T06:16:32;33.77;;;19.87;;
77304;SDS011;66364;52.622;7.746;2023-03-03T06:18:33;37.60;;;19.97;;
77304;SDS011;66364;52.622;7.746;2023-03-03T06:20:33;31.77;;;19.10;;
77304;SDS011;66364;52.622;7.746;2023-03-03T06:22:41;30.90;;;20.10;;
77304;SDS011;66364;52.622;7.746;2023-03-03T06:24:41;38.23;;;20.15;;
77304;SDS011;66364;52.622;7.746;2023-03-03T06:26:42;31.50;;;19.37;;
77304;SDS011;66364;52.622;7.746;2023-03-03T06:28:45;36.30;;;20.80;;
77304;SDS011;66364;52.622;7.746;2023-03-03T06:30:46;34.75;;;20.40;;
77304;SDS011;66364;52.622;7.746;2023-03-03T06:32:47;32.27;;;20.30;;
77304;SDS011;66364;52.622;7.746;2023-03-03T06:34:48;34.73;;;21.60;;
77304;SDS011;66364;52.622;7.746;2023-03-03T06:36:48;36.20;;;19.67;;
77304;SDS011;66364;52.622;7.746;2023-03-03T06:38:49;38.27;;;20.80;;
77304;SDS011;66364;52.622;7.746;2023-03-03T06:40:50;35.43;;;20.97;;
77304;SDS011;66364;52.622;7.746;2023-03-03T06:42:51;37.63;;;21.73;;
77304;SDS011;66364;52.622;7.746;2023-03-03T06:44:51;34.50;;;20.07;;
77304;SDS011;66364;52.622;7.746;2023-03-03T06:46:52;34.90;;;19.23;;
77304;SDS011;66364;52.622;7.746;2023-03-03T06:48:53;35.77;;;19.90;;
77304;SDS011;66364;52.622;7.746;2023-03-03T06:50:53;42.13;;;21.93;;
77304;SDS011;66364;52.622;7.746;2023-03-03T06:55:20;33.42;;;19.80;;
77304;SDS011;66364;52.622;7.746;2023-03-03T06:59:35;38.05;;;20.82;;
77304;SDS011;66364;52.622;7.746;2023-03-03T07:01:42;35.65;;;21.05;;
77304;SDS011;66364;52.622;7.746;2023-03-03T07:03:44;38.02;;;23.02;;
77304;SDS011;66364;52.622;7.746;2023-03-03T07:05:45;38.35;;;22.15;;
77304;SDS011;66364;52.622;7.746;2023-03-03T07:07:46;36.90;;;20.03;;
77304;SDS011;66364;52.622;7.746;2023-03-03T07:09:48;31.42;;;20.35;;
77304;SDS011;66364;52.622;7.746;2023-03-03T07:11:50;32.35;;;19.30;;
77304;SDS011;66364;52.622;7.746;2023-03-03T07:13:53;35.90;;;21.93;;
77304;SDS011;66364;52.622;7.746;2023-03-03T07:15:55;32.55;;;19.40;;
77304;SDS011;66364;52.622;7.746;2023-03-03T07:17:59;35.10;;;20.27;;
77304;SDS011;66364;52.622;7.746;2023-03-03T07:20:00;34.85;;;20.80;;
77304;SDS011;66364;52.622;7.746;2023-03-03T07:24:28;36.90;;;19.67;;
77304;SDS011;66364;52.622;7.746;2023-03-03T07:26:30;29.50;;;18.90;;
77304;SDS011;66364;52.622;7.746;2023-03-03T07:28:42;29.23;;;18.20;;
77304;SDS011;66364;52.622;7.746;2023-03-03T07:30:45;39.70;;;19.30;;
77304;SDS011;66364;52.622;7.746;2023-03-03T07:32:46;34.67;;;20.40;;
77304;SDS011;66364;52.622;7.746;2023-03-03T07:34:47;35.27;;;19.97;;
77304;SDS011;66364;52.622;7.746;2023-03-03T07:36:52;33.60;;;16.80;;
77304;SDS011;66364;52.622;7.746;2023-03-03T07:38:55;35.92;;;20.35;;
77304;SDS011;66364;52.622;7.746;2023-03-03T07:40:59;33.70;;;18.15;;
77304;SDS011;66364;52.622;7.746;2023-03-03T07:43:01;32.70;;;19.15;;
77304;SDS011;66364;52.622;7.746;2023-03-03T07:45:34;26.97;;;16.52;;
77304;SDS011;66364;52.622;7.746;2023-03-03T07:48:12;32.03;;;18.12;;
77304;SDS011;66364;52.622;7.746;2023-03-03T07:50:17;30.27;;;17.10;;
77304;SDS011;66364;52.622;7.746;2023-03-03T07:52:21;35.52;;;19.23;;
77304;SDS011;66364;52.622;7.746;2023-03-03T07:56:33;26.33;;;16.97;;
77304;SDS011;66364;52.622;7.746;2023-03-03T07:58:36;24.63;;;15.32;;
77304;SDS011;66364;52.622;7.746;2023-03-03T08:03:17;24.23;;;14.73;;
77304;SDS011;66364;52.622;7.746;2023-03-03T08:05:21;29.20;;;16.67;;
77304;SDS011;66364;52.622;7.746;2023-03-03T08:07:42;26.42;;;16.73;;
77304;SDS011;66364;52.622;7.746;2023-03-03T08:09:43;29.23;;;18.43;;
77304;SDS011;66364;52.622;7.746;2023-03-03T08:14:26;24.55;;;15.08;;
77304;SDS011;66364;52.622;7.746;2023-03-03T08:16:28;26.15;;;17.00;;
77304;SDS011;66364;52.622;7.746;2023-03-03T08:18:47;23.75;;;14.75;;
77304;SDS011;66364;52.622;7.746;2023-03-03T08:20:50;24.43;;;15.58;;
77304;SDS011;66364;52.622;7.746;2023-03-03T08:22:56;23.00;;;15.78;;
77304;SDS011;66364;52.622;7.746;2023-03-03T08:25:02;28.20;;;16.77;;
77304;SDS011;66364;52.622;7.746;2023-03-03T08:27:03;28.38;;;16.02;;
77304;SDS011;66364;52.622;7.746;2023-03-03T08:29:04;22.23;;;16.00;;
77304;SDS011;66364;52.622;7.746;2023-03-03T08:31:04;25.23;;;16.13;;
77304;SDS011;66364;52.622;7.746;2023-03-03T08:33:05;23.83;;;15.40;;
77304;SDS011;66364;52.622;7.746;2023-03-03T08:35:06;18.53;;;13.27;;
77304;SDS011;66364;52.622;7.746;2023-03-03T08:37:07;20.52;;;14.43;;
77304;SDS011;66364;52.622;7.746;2023-03-03T08:39:08;28.30;;;16.60;;
77304;SDS011;66364;52.622;7.746;2023-03-03T08:41:09;20.83;;;13.87;;
77304;SDS011;66364;52.622;7.746;2023-03-03T08:43:10;23.18;;;15.20;;
77304;SDS011;66364;52.622;7.746;2023-03-03T08:45:11;22.93;;;12.45;;
77304;SDS011;66364;52.622;7.746;2023-03-03T08:47:12;14.80;;;10.37;;
77304;SDS011;66364;52.622;7.746;2023-03-03T08:49:12;15.10;;;10.00;;
77304;SDS011;66364;52.622;7.746;2023-03-03T08:51:13;15.83;;;11.40;;
77304;SDS011;66364;52.622;7.746;2023-03-03T08:53:14;19.87;;;11.73;;
77304;SDS011;66364;52.622;7.746;2023-03-03T08:55:16;17.17;;;11.80;;
77304;SDS011;66364;52.622;7.746;2023-03-03T08:57:17;20.97;;;11.87;;
77304;SDS011;66364;52.622;7.746;2023-03-03T08:59:17;17.07;;;11.23;;
77304;SDS011;66364;52.622;7.746;2023-03-03T09:01:18;16.57;;;12.67;;
77304;SDS011;66364;52.622;7.746;2023-03-03T09:03:19;14.20;;;10.33;;
77304;SDS011;66364;52.622;7.746;2023-03-03T09:05:20;15.37;;;10.53;;
77304;SDS011;66364;52.622;7.746;2023-03-03T09:07:21;17.85;;;11.22;;
77304;SDS011;66364;52.622;7.746;2023-03-03T09:09:22;15.30;;;9.40;;
77304;SDS011;66364;52.622;7.746;2023-03-03T09:11:24;16.33;;;11.63;;
77304;SDS011;66364;52.622;7.746;2023-03-03T09:13:28;14.07;;;10.65;;
77304;SDS011;66364;52.622;7.746;2023-03-03T09:15:33;14.95;;;10.98;;
77304;SDS011;66364;52.622;7.746;2023-03-03T09:17:34;16.95;;;11.40;;
77304;SDS011;66364;52.622;7.746;2023-03-03T09:19:35;12.75;;;9.35;;
77304;SDS011;66364;52.622;7.746;2023-03-03T09:21:36;16.67;;;11.85;;
77304;SDS011;66364;52.622;7.746;2023-03-03T09:23:37;12.33;;;9.70;;
77304;SDS011;66364;52.622;7.746;2023-03-03T09:25:44;13.30;;;9.60;;
77304;SDS011;66364;52.622;7.746;2023-03-03T09:27:45;11.70;;;9.10;;
77304;SDS011;66364;52.622;7.746;2023-03-03T09:29:45;11.13;;;7.73;;
77304;SDS011;66364;52.622;7.746;2023-03-03T09:31:50;13.43;;;7.83;;
77304;SDS011;66364;52.622;7.746;2023-03-03T09:33:52;9.43;;;6.45;;
77304;SDS011;66364;52.622;7.746;2023-03-03T09:35:56;10.57;;;7.77;;
77304;SDS011;66364;52.622;7.746;2023-03-03T09:43:12;9.10;;;7.65;;
77304;SDS011;66364;52.622;7.746;2023-03-03T09:45:14;12.05;;;7.42;;
77304;SDS011;66364;52.622;7.746;2023-03-03T09:52:45;11.18;;;9.38;;
77304;SDS011;66364;52.622;7.746;2023-03-03T09:56:38;14.85;;;9.05;;
77304;SDS011;66364;52.622;7.746;2023-03-03T10:05:56;12.60;;;7.40;;
77304;SDS011;66364;52.622;7.746;2023-03-03T10:10:28;9.25;;;6.50;;
77304;SDS011;66364;52.622;7.746;2023-03-03T10:15:35;7.25;;;6.08;;
77304;SDS011;66364;52.622;7.746;2023-03-03T10:17:42;8.90;;;6.95;;
77304;SDS011;66364;52.622;7.746;2023-03-03T10:22:22;10.08;;;7.85;;
77304;SDS011;66364;52.622;7.746;2023-03-03T10:29:20;11.43;;;7.00;;
77304;SDS011;66364;52.622;7.746;2023-03-03T10:31:41;7.50;;;6.10;;
77304;SDS011;66364;52.622;7.746;2023-03-03T10:36:11;7.25;;;6.25;;
77304;SDS011;66364;52.622;7.746;2023-03-03T10:38:30;7.40;;;6.12;;
77304;SDS011;66364;52.622;7.746;2023-03-03T10:49:30;10.40;;;7.75;;
77304;SDS011;66364;52.622;7.746;2023-03-03T11:01:56;6.97;;;5.70;;
77304;SDS011;66364;52.622;7.746;2023-03-03T11:08:22;10.08;;;7.87;;
77304;SDS011;66364;52.622;7.746;2023-03-03T11:17:36;7.80;;;7.00;;
77304;SDS011;66364;52.622;7.746;2023-03-03T11:22:16;7.20;;;6.40;;
77304;SDS011;66364;52.622;7.746;2023-03-03T11:36:51;7.87;;;5.37;;
77304;SDS011;66364;52.622;7.746;2023-03-03T11:39:03;6.10;;;5.33;;
77304;SDS011;66364;52.622;7.746;2023-03-03T11:41:10;6.60;;;4.53;;
77304;SDS011;66364;52.622;7.746;2023-03-03T11:43:16;6.87;;;4.70;;
77304;SDS011;66364;52.622;7.746;2023-03-03T11:45:30;5.60;;;4.95;;
77304;SDS011;66364;52.622;7.746;2023-03-03T11:47:44;7.40;;;4.47;;
77304;SDS011;66364;52.622;7.746;2023-03-03T11:56:57;9.10;;;8.30;;
77304;SDS011;66364;52.622;7.746;2023-03-03T12:04:31;5.42;;;4.15;;
77304;SDS011;66364;52.622;7.746;2023-03-03T12:06:57;5.28;;;4.08;;
77304;SDS011;66364;52.622;7.746;2023-03-03T12:09:14;4.87;;;3.70;;
77304;SDS011;66364;52.622;7.746;2023-03-03T12:12:13;4.33;;;3.80;;
77304;SDS011;66364;52.622;7.746;2023-03-03T12:18:21;9.08;;;5.35;;
77304;SDS011;66364;52.622;7.746;2023-03-03T12:25:56;6.58;;;5.20;;
77304;SDS011;66364;52.622;7.746;2023-03-03T12:28:20;7.00;;;4.70;;
77304;SDS011;66364;52.622;7.746;2023-03-03T12:33:11;5.35;;;3.90;;
77304;SDS011;66364;52.622;7.746;2023-03-03T12:35:24;4.08;;;3.75;;
77304;SDS011;66364;52.622;7.746;2023-03-03T12:37:22;3.87;;;3.02;;
77304;SDS011;66364;52.622;7.746;2023-03-03T12:46:51;5.78;;;3.17;;
77304;SDS011;66364;52.622;7.746;2023-03-03T12:48:52;3.35;;;2.87;;
77304;SDS011;66364;52.622;7.746;2023-03-03T12:56:47;4.55;;;3.50;;
77304;SDS011;66364;52.622;7.746;2023-03-03T12:59:20;3.52;;;2.70;;
77304;SDS011;66364;52.622;7.746;2023-03-03T13:01:43;3.27;;;2.75;;
77304;SDS011;66364;52.622;7.746;2023-03-03T13:09:18;3.22;;;2.30;;
77304;SDS011;66364;52.622;7.746;2023-03-03T13:16:24;2.05;;;1.80;;
77304;SDS011;66364;52.622;7.746;2023-03-03T13:21:03;5.15;;;2.45;;
77304;SDS011;66364;52.622;7.746;2023-03-03T13:25:55;2.95;;;2.52;;
77304;SDS011;66364;52.622;7.746;2023-03-03T13:30:15;5.35;;;2.60;;
77304;SDS011;66364;52.622;7.746;2023-03-03T13:36:44;5.55;;;2.70;;
77304;SDS011;66364;52.622;7.746;2023-03-03T13:39:02;3.80;;;2.47;;
77304;SDS011;66364;52.622;7.746;2023-03-03T13:46:01;3.67;;;2.17;;
77304;SDS011;66364;52.622;7.746;2023-03-03T13:55:42;4.25;;;2.22;;
77304;SDS011;66364;52.622;7.746;2023-03-03T14:07:17;2.27;;;1.70;;
77304;SDS011;66364;52.622;7.746;2023-03-03T14:11:53;3.15;;;1.50;;
77304;SDS011;66364;52.622;7.746;2023-03-03T14:20:52;2.70;;;2.05;;
77304;SDS011;66364;52.622;7.746;2023-03-03T14:25:04;2.77;;;2.27;;
77304;SDS011;66364;52.622;7.746;2023-03-03T14:27:21;1.42;;;1.32;;
77304;SDS011;66364;52.622;7.746;2023-03-03T14:29:29;3.60;;;2.35;;
77304;SDS011;66364;52.622;7.746;2023-03-03T14:31:38;4.28;;;2.30;;
77304;SDS011;66364;52.622;7.746;2023-03-03T14:33:42;8.80;;;3.72;;
77304;SDS011;66364;52.622;7.746;2023-03-03T14:38:13;6.05;;;4.25;;
77304;SDS011;66364;52.622;7.746;2023-03-03T14:40:18;3.77;;;2.85;;
77304;SDS011;66364;52.622;7.746;2023-03-03T14:42:36;3.70;;;3.40;;
77304;SDS011;66364;52.622;7.746;2023-03-03T14:49:46;3.72;;;2.95;;
77304;SDS011;66364;52.622;7.746;2023-03-03T14:51:47;3.73;;;2.90;;
77304;SDS011;66364;52.622;7.746;2023-03-03T14:53:49;3.58;;;2.87;;
77304;SDS011;66364;52.622;7.746;2023-03-03T14:55:52;4.55;;;3.00;;
77304;SDS011;66364;52.622;7.746;2023-03-03T14:57:53;3.72;;;2.98;;
77304;SDS011;66364;52.622;7.746;2023-03-03T15:08:35;5.72;;;2.77;;
77304;SDS011;66364;52.622;7.746;2023-03-03T15:10:40;4.92;;;3.00;;
77304;SDS011;66364;52.622;7.746;2023-03-03T15:12:45;7.10;;;3.47;;
77304;SDS011;66364;52.622;7.746;2023-03-03T15:14:50;4.10;;;2.50;;
77304;SDS011;66364;52.622;7.746;2023-03-03T15:16:56;6.67;;;2.70;;
77304;SDS011;66364;52.622;7.746;2023-03-03T15:22:11;4.15;;;3.12;;
77304;SDS011;66364;52.622;7.746;2023-03-03T15:24:30;10.43;;;4.33;;
77304;SDS011;66364;52.622;7.746;2023-03-03T15:33:45;4.10;;;2.30;;
77304;SDS011;66364;52.622;7.746;2023-03-03T15:41:31;3.10;;;2.22;;
77304;SDS011;66364;52.622;7.746;2023-03-03T15:43:40;6.47;;;4.95;;
77304;SDS011;66364;52.622;7.746;2023-03-03T15:55:25;3.98;;;3.52;;
77304;SDS011;66364;52.622;7.746;2023-03-03T16:00:11;2.50;;;2.30;;
77304;SDS011;66364;52.622;7.746;2023-03-03T16:02:33;7.12;;;3.30;;
77304;SDS011;66364;52.622;7.746;2023-03-03T16:04:35;3.55;;;2.58;;
77304;SDS011;66364;52.622;7.746;2023-03-03T16:09:11;20.48;;;15.40;;
77304;SDS011;66364;52.622;7.746;2023-03-03T16:21:08;19.77;;;13.45;;
77304;SDS011;66364;52.622;7.746;2023-03-03T16:23:41;8.93;;;6.47;;
77304;SDS011;66364;52.622;7.746;2023-03-03T16:26:24;8.73;;;6.62;;
77304;SDS011;66364;52.622;7.746;2023-03-03T16:36:09;4.03;;;3.72;;
77304;SDS011;66364;52.622;7.746;2023-03-03T16:38:23;3.15;;;2.85;;
77304;SDS011;66364;52.622;7.746;2023-03-03T16:40:35;7.10;;;4.05;;
77304;SDS011;66364;52.622;7.746;2023-03-03T16:43:09;3.60;;;3.20;;
77304;SDS011;66364;52.622;7.746;2023-03-03T16:45:34;4.90;;;4.47;;
77304;SDS011;66364;52.622;7.746;2023-03-03T16:52:32;6.17;;;4.03;;
77304;SDS011;66364;52.622;7.746;2023-03-03T17:10:36;8.20;;;3.80;;
77304;SDS011;66364;52.622;7.746;2023-03-03T17:17:38;3.90;;;2.98;;
77304;SDS011;66364;52.622;7.746;2023-03-03T17:24:37;3.08;;;2.10;;
77304;SDS011;66364;52.622;7.746;2023-03-03T17:34:12;4.40;;;2.42;;